Time;durP1;ratioP1;P1;durP2;ratioP2;P2;SDS_P1;SDS_P2;PMS_P1;PMS_P2;Temp;Humidity;BMP_temperature;BMP_pressure;BME280_temperature;BME280_humidity;BME280_pressure;Samples;Min_cycle;Max_cycle;Signal;HPM_P1;HPM_P2
2020/12/01 00:02:08;;;;;;;;;;;;;;;21.33;23.20;98401.81;5123905;28;717;-74
2020/12/01 00:04:33;;;;;;;;;;;;;;;21.80;22.79;98391.16;5124271;28;570;-74
2020/12/01 00:06:59;;;;;;;;;;;;;;;22.27;22.29;98390.94;5123886;28;963;-74
2020/12/01 00:09:24;;;;;;;;;;;;;;;21.71;22.43;98392.97;5123781;28;894;-74
2020/12/01 00:11:50;;;;;;;;;;;;;;;21.26;23.59;98397.06;5124059;28;958;-74
2020/12/01 00:14:15;;;;;;;;;;;;;;;21.44;23.03;98384.63;5123674;28;708;-74
2020/12/01 00:16:41;;;;;;;;;;;;;;;21.32;23.37;98395.38;5123915;28;1906;-73
2020/12/01 00:19:06;;;;;;;;;;;;;;;21.75;22.78;98394.50;5123921;28;652;-74
2020/12/01 00:21:31;;;;;;;;;;;;;;;22.14;22.37;98392.88;5123527;28;1105;-74
2020/12/01 00:23:57;;;;;;;;;;;;;;;22.12;22.12;98401.00;5123489;28;879;-74
2020/12/01 00:26:22;;;;;;;;;;;;;;;21.43;23.12;98388.69;5123606;28;889;-74
2020/12/01 00:28:48;;;;;;;;;;;;;;;20.84;24.05;98400.69;5123678;28;675;-74
2020/12/01 00:31:14;;;;;;;;;;;;;;;21.54;23.00;98372.28;5123399;28;692;-74
2020/12/01 00:33:39;;;;;;;;;;;;;;;21.45;22.98;98369.22;5123696;28;665;-74
2020/12/01 00:36:05;;;;;;;;;;;;;;;21.42;22.91;98376.56;5122973;28;1902;-74
2020/12/01 00:38:30;;;;;;;;;;;;;;;21.69;22.71;98395.44;5105614;28;859;-74
2020/12/01 00:40:56;;;;;;;;;;;;;;;21.51;22.90;98396.63;5123411;28;1037;-74
2020/12/01 00:43:21;;;;;;;;;;;;;;;21.42;22.93;98392.75;5123190;28;605;-74
2020/12/01 00:45:46;;;;;;;;;;;;;;;21.27;22.90;98387.34;5123222;28;639;-74
2020/12/01 00:48:12;;;;;;;;;;;;;;;21.31;23.37;98399.44;5122316;28;589;-74
2020/12/01 00:50:38;;;;;;;;;;;;;;;21.31;23.44;98398.63;5104920;28;1352;-74
2020/12/01 00:53:04;;;;;;;;;;;;;;;21.75;22.48;98376.72;5104564;28;1126;-73
2020/12/01 00:55:30;;;;;;;;;;;;;;;22.21;22.24;98370.03;5105256;28;1975;-74
2020/12/01 00:57:58;;;;;;;;;;;;;;;22.15;22.37;98377.47;5105517;28;1179;-74
2020/12/01 01:00:25;;;;;;;;;;;;;;;21.64;22.53;98374.09;5105053;28;1162;-74
2020/12/01 01:03:06;;;;;;;;;;;;;;;21.42;22.90;98375.78;5105523;28;1193;-74
2020/12/01 01:05:32;;;;;;;;;;;;;;;21.12;23.51;98391.66;5123158;28;656;-74
2020/12/01 01:07:57;;;;;;;;;;;;;;;21.61;22.93;98389.16;5122624;28;963;-74
2020/12/01 01:10:24;;;;;;;;;;;;;;;21.92;22.57;98380.41;5122395;28;797;-74
2020/12/01 01:12:50;;;;;;;;;;;;;;;22.02;22.35;98388.69;5122519;28;994;-73
2020/12/01 01:15:15;;;;;;;;;;;;;;;21.94;22.28;98378.72;5122542;28;1022;-74
2020/12/01 01:17:41;;;;;;;;;;;;;;;21.54;22.90;98372.28;5122446;28;1897;-73
2020/12/01 01:20:06;;;;;;;;;;;;;;;21.17;23.25;98377.03;5122754;28;608;-74
2020/12/01 01:22:32;;;;;;;;;;;;;;;21.55;23.11;98371.03;5122190;28;891;-74
2020/12/01 01:24:57;;;;;;;;;;;;;;;21.95;22.24;98380.31;5122474;28;877;-74
2020/12/01 01:27:23;;;;;;;;;;;;;;;22.13;22.14;98367.84;5122214;28;760;-74
2020/12/01 01:29:48;;;;;;;;;;;;;;;22.19;22.12;98372.53;5122893;28;646;-74
2020/12/01 01:32:14;;;;;;;;;;;;;;;21.85;22.14;98370.81;5122516;28;585;-74
2020/12/01 01:34:39;;;;;;;;;;;;;;;21.32;23.02;98364.22;5121950;28;817;-74
2020/12/01 01:37:05;;;;;;;;;;;;;;;21.32;23.10;98366.25;5122060;28;1974;-74
2020/12/01 01:39:30;;;;;;;;;;;;;;;21.18;23.09;98367.28;5122070;28;936;-74
2020/12/01 01:41:56;;;;;;;;;;;;;;;21.59;22.99;98364.09;5122036;28;585;-74
2020/12/01 01:44:25;;;;;;;;;;;;;;;21.85;22.61;98353.81;5122571;28;701;-73
2020/12/01 01:46:53;;;;;;;;;;;;;;;21.95;22.45;98345.53;5122372;28;660;-74
2020/12/01 01:49:21;;;;;;;;;;;;;;;22.03;22.35;98346.97;5104090;28;932;-74
2020/12/01 01:51:53;;;;;;;;;;;;;;;22.10;22.08;98346.78;5121480;28;929;-74
2020/12/01 01:54:19;;;;;;;;;;;;;;;21.94;22.22;98350.38;5121828;28;593;-74
2020/12/01 01:57:00;;;;;;;;;;;;;;;21.69;22.39;98356.59;5121676;28;1969;-74
2020/12/01 01:59:25;;;;;;;;;;;;;;;21.10;23.28;98365.84;5121431;28;748;-74
2020/12/01 02:01:51;;;;;;;;;;;;;;;21.27;23.17;98359.03;5103709;28;651;-74
2020/12/01 02:04:16;;;;;;;;;;;;;;;21.77;22.46;98358.06;5121571;28;1060;-74
2020/12/01 02:06:49;;;;;;;;;;;;;;;22.17;22.12;98362.84;5121426;28;912;-74
2020/12/01 02:09:17;;;;;;;;;;;;;;;22.02;22.04;98357.50;5103853;28;1009;-74
2020/12/01 02:11:43;;;;;;;;;;;;;;;20.72;23.50;98363.28;5121873;28;633;-74
2020/12/01 02:14:22;;;;;;;;;;;;;;;21.15;23.19;98368.19;5121720;28;679;-74
2020/12/01 02:16:58;;;;;;;;;;;;;;;21.55;22.93;98368.22;5103629;28;1901;-74
2020/12/01 02:19:24;;;;;;;;;;;;;;;21.44;22.57;98361.97;5121401;28;983;-74
2020/12/01 02:21:50;;;;;;;;;;;;;;;21.51;22.77;98361.84;5121226;28;809;-74
2020/12/01 02:24:19;;;;;;;;;;;;;;;21.50;22.65;98363.06;5103829;28;867;-74
2020/12/01 02:26:55;;;;;;;;;;;;;;;21.33;22.82;98371.47;5121157;28;782;-74
2020/12/01 02:29:22;;;;;;;;;;;;;;;21.44;22.58;98367.63;5104341;28;633;-74
2020/12/01 02:31:47;;;;;;;;;;;;;;;21.73;22.29;98368.66;5121017;28;658;-74
2020/12/01 02:34:14;;;;;;;;;;;;;;;22.03;21.97;98375.31;5121159;28;669;-74
2020/12/01 02:36:40;;;;;;;;;;;;;;;22.10;21.72;98364.63;5121024;28;1975;-74
2020/12/01 02:39:06;;;;;;;;;;;;;;;21.61;22.34;98360.03;5120938;28;939;-74
2020/12/01 02:41:31;;;;;;;;;;;;;;;21.42;22.51;98353.13;5120574;28;881;-74
2020/12/01 02:43:57;;;;;;;;;;;;;;;21.47;22.67;98349.78;5121104;28;967;-74
2020/12/01 02:46:22;;;;;;;;;;;;;;;21.69;22.53;98355.81;5121229;28;649;-73
2020/12/01 02:48:48;;;;;;;;;;;;;;;21.68;22.26;98357.84;5120852;28;645;-74
2020/12/01 02:51:13;;;;;;;;;;;;;;;21.78;22.55;98359.66;5121034;28;617;-73
2020/12/01 02:53:39;;;;;;;;;;;;;;;21.91;22.01;98351.25;5120716;28;928;-74
2020/12/01 02:56:04;;;;;;;;;;;;;;;22.03;21.95;98350.59;5120710;28;1984;-74
2020/12/01 02:58:29;;;;;;;;;;;;;;;21.62;22.51;98353.94;5120903;28;824;-74
2020/12/01 03:00:55;;;;;;;;;;;;;;;21.10;23.00;98368.69;5120914;28;657;-74
2020/12/01 03:03:20;;;;;;;;;;;;;;;21.25;23.06;98361.53;5120610;28;550;-73
2020/12/01 03:05:46;;;;;;;;;;;;;;;21.56;22.44;98362.13;5120923;28;577;-73
2020/12/01 03:08:11;;;;;;;;;;;;;;;21.76;22.14;98350.81;5120235;28;908;-74
2020/12/01 03:10:37;;;;;;;;;;;;;;;22.04;22.04;98359.91;5120543;28;879;-74
2020/12/01 03:13:02;;;;;;;;;;;;;;;22.08;21.85;98352.13;5120084;28;868;-74
2020/12/01 03:15:28;;;;;;;;;;;;;;;21.65;22.08;98352.25;5120326;28;951;-74
2020/12/01 03:17:56;;;;;;;;;;;;;;;21.24;22.90;98354.28;5120850;28;685;-74
2020/12/01 03:20:22;;;;;;;;;;;;;;;21.20;22.88;98353.53;5120428;28;648;-74
2020/12/01 03:22:48;;;;;;;;;;;;;;;21.68;22.27;98360.66;5120099;28;923;-74
2020/12/01 03:25:13;;;;;;;;;;;;;;;22.19;21.83;98349.84;5136663;27;1197;-73
2020/12/01 03:27:38;;;;;;;;;;;;;;;22.40;21.25;98350.59;5120703;28;832;-74
2020/12/01 03:30:04;;;;;;;;;;;;;;;21.68;22.12;98346.50;5120596;28;681;-74
2020/12/01 03:32:30;;;;;;;;;;;;;;;21.41;22.68;98351.53;5120620;28;662;-74
2020/12/01 03:34:55;;;;;;;;;;;;;;;21.30;22.71;98357.41;5120299;28;644;-74
2020/12/01 03:37:21;;;;;;;;;;;;;;;21.73;22.37;98363.00;5119822;28;1902;-74
2020/12/01 03:39:46;;;;;;;;;;;;;;;22.15;21.73;98371.00;5120017;28;903;-74
2020/12/01 03:42:12;;;;;;;;;;;;;;;21.93;21.76;98360.13;5120148;28;988;-74
2020/12/01 03:44:37;;;;;;;;;;;;;;;21.42;22.81;98359.59;5120504;28;632;-73
2020/12/01 03:47:03;;;;;;;;;;;;;;;20.96;23.27;98366.09;5120138;28;642;-74
2020/12/01 03:49:28;;;;;;;;;;;;;;;21.60;22.34;98362.03;5120316;28;463;-74
2020/12/01 03:51:54;;;;;;;;;;;;;;;21.58;22.47;98364.53;5119821;28;924;-74
2020/12/01 03:54:19;;;;;;;;;;;;;;;21.50;22.71;98361.06;5119779;28;942;-74
2020/12/01 03:56:44;;;;;;;;;;;;;;;21.61;22.26;98362.88;5120212;28;1909;-74
2020/12/01 03:59:10;;;;;;;;;;;;;;;21.29;22.60;98373.53;5120106;28;613;-74
2020/12/01 04:01:35;;;;;;;;;;;;;;;21.45;22.57;98372.88;5120001;28;660;-74
2020/12/01 04:04:01;;;;;;;;;;;;;;;21.77;22.17;98372.22;5119972;28;609;-74
2020/12/01 04:06:26;;;;;;;;;;;;;;;21.93;22.10;98370.66;5119895;28;922;-74
2020/12/01 04:08:52;;;;;;;;;;;;;;;21.94;21.73;98360.94;5120075;28;880;-74
2020/12/01 04:11:17;;;;;;;;;;;;;;;21.98;21.69;98373.00;5120166;28;858;-74
2020/12/01 04:13:43;;;;;;;;;;;;;;;21.59;22.25;98381.06;5120225;28;640;-74
2020/12/01 04:16:08;;;;;;;;;;;;;;;21.29;22.35;98384.88;5119699;28;1906;-74
2020/12/01 04:18:34;;;;;;;;;;;;;;;21.36;22.46;98374.69;5119979;28;688;-74
2020/12/01 04:20:59;;;;;;;;;;;;;;;21.45;22.52;98364.41;5119532;28;937;-74
2020/12/01 04:23:25;;;;;;;;;;;;;;;21.68;22.18;98372.00;5120125;28;905;-73
2020/12/01 04:25:50;;;;;;;;;;;;;;;21.69;22.24;98378.47;5123771;28;852;-74
2020/12/01 04:28:15;;;;;;;;;;;;;;;21.84;21.85;98369.22;5123475;28;624;-74
2020/12/01 04:30:41;;;;;;;;;;;;;;;21.99;21.82;98374.56;5123862;28;614;-74
2020/12/01 04:33:06;;;;;;;;;;;;;;;22.02;21.69;98359.50;5123355;28;597;-74
2020/12/01 04:35:32;;;;;;;;;;;;;;;22.01;21.71;98352.25;5123654;28;1988;-74
2020/12/01 04:38:01;;;;;;;;;;;;;;;21.58;22.06;98365.31;5122989;28;1051;-74
2020/12/01 04:40:29;;;;;;;;;;;;;;;21.35;22.36;98367.41;5123016;28;833;-74
2020/12/01 04:42:58;;;;;;;;;;;;;;;19.87;24.65;98364.59;5123346;28;636;-74
2020/12/01 04:45:24;;;;;;;;;;;;;;;21.73;22.14;98359.38;5123214;28;559;-74
2020/12/01 04:48:25;;;;;;;;;;;;;;;22.13;21.55;98350.81;5114519;28;897;-74
2020/12/01 04:50:52;;;;;;;;;;;;;;;20.79;22.97;98356.72;5101206;28;1143;-74
2020/12/01 04:53:26;;;;;;;;;;;;;;;21.08;22.91;98345.66;5118052;28;870;-74
2020/12/01 04:56:15;;;;;;;;;;;;;;;20.74;23.44;98355.19;5122548;27;1902;-74
2020/12/01 04:59:03;;;;;;;;;;;;;;;21.35;22.41;98354.09;5112378;28;1234;-74
2020/12/01 05:01:44;;;;;;;;;;;;;;;21.46;22.93;98365.19;5123030;28;1154;-74
2020/12/01 05:04:19;;;;;;;;;;;;;;;21.87;21.91;98376.06;5122821;28;672;-74
2020/12/01 05:09:31;;;;;;;;;;;;;;;21.51;22.65;98364.69;5137676;27;840;-73
2020/12/01 05:11:58;;;;;;;;;;;;;;;21.32;22.80;98367.06;5122764;28;578;-74
2020/12/01 05:14:44;;;;;;;;;;;;;;;21.40;22.73;98372.56;5122916;28;720;-74
2020/12/01 05:17:28;;;;;;;;;;;;;;;21.39;22.71;98356.81;5138340;27;1901;-73
2020/12/01 05:19:54;;;;;;;;;;;;;;;21.39;22.52;98354.00;5122524;28;892;-74
2020/12/01 05:22:19;;;;;;;;;;;;;;;21.55;22.40;98362.56;5122435;28;955;-74
2020/12/01 05:24:45;;;;;;;;;;;;;;;21.90;21.97;98354.53;5122578;28;926;-74
2020/12/01 05:27:24;;;;;;;;;;;;;;;22.01;21.71;98350.22;5122564;28;808;-74
2020/12/01 05:30:16;;;;;;;;;;;;;;;21.99;21.67;98357.56;5122444;28;585;-74
2020/12/01 05:32:43;;;;;;;;;;;;;;;21.69;22.04;98362.25;5121023;28;1181;-74
2020/12/01 05:35:14;;;;;;;;;;;;;;;21.49;22.21;98369.97;5138001;27;1193;-74
2020/12/01 05:37:40;;;;;;;;;;;;;;;21.26;22.57;98362.31;5121677;28;1906;-74
2020/12/01 05:40:06;;;;;;;;;;;;;;;21.22;22.38;98362.38;5122045;28;939;-76
2020/12/01 05:42:32;;;;;;;;;;;;;;;20.84;23.03;98372.41;5122162;28;673;-74
2020/12/01 05:44:57;;;;;;;;;;;;;;;21.03;22.80;98371.63;5137978;27;1262;-74
2020/12/01 05:47:26;;;;;;;;;;;;;;;21.33;22.36;98357.31;5122239;28;669;-74
2020/12/01 05:50:06;;;;;;;;;;;;;;;21.21;22.63;98379.78;5138284;27;613;-74
2020/12/01 05:52:32;;;;;;;;;;;;;;;21.44;22.25;98364.81;5121480;28;961;-74
2020/12/01 05:55:06;;;;;;;;;;;;;;;21.74;22.21;98375.91;5137739;27;864;-74
2020/12/01 05:57:32;;;;;;;;;;;;;;;21.70;22.15;98386.50;5121612;28;1976;-74
2020/12/01 06:00:00;;;;;;;;;;;;;;;21.77;21.97;98375.06;5121568;28;637;-74
2020/12/01 06:02:43;;;;;;;;;;;;;;;21.73;22.11;98377.16;5104159;28;1557;-73
2020/12/01 06:05:09;;;;;;;;;;;;;;;21.58;22.20;98368.16;5121598;28;648;-76
2020/12/01 06:07:34;;;;;;;;;;;;;;;21.54;22.20;98369.47;5137928;27;1073;-74
2020/12/01 06:10:00;;;;;;;;;;;;;;;21.47;22.31;98363.94;5137691;27;874;-74
2020/12/01 06:12:31;;;;;;;;;;;;;;;20.91;22.96;98373.06;5121397;28;861;-74
2020/12/01 06:14:57;;;;;;;;;;;;;;;21.26;22.70;98368.78;5121362;28;681;-74
2020/12/01 06:17:26;;;;;;;;;;;;;;;20.34;23.85;98362.69;5121160;28;1898;-74
2020/12/01 06:19:53;;;;;;;;;;;;;;;21.05;22.95;98369.19;5121255;28;637;-74
2020/12/01 06:22:31;;;;;;;;;;;;;;;21.49;22.56;98367.94;5137749;27;967;-75
2020/12/01 06:25:02;;;;;;;;;;;;;;;21.50;22.30;98388.53;5121040;28;845;-74
2020/12/01 06:27:46;;;;;;;;;;;;;;;20.95;22.94;98387.16;5121509;28;631;-74
2020/12/01 06:30:30;;;;;;;;;;;;;;;21.23;22.51;98380.94;5121147;28;637;-74
2020/12/01 06:33:02;;;;;;;;;;;;;;;21.24;22.44;98379.75;5121187;28;642;-74
2020/12/01 06:35:37;;;;;;;;;;;;;;;21.52;22.23;98374.78;5138126;27;685;-74
2020/12/01 06:38:15;;;;;;;;;;;;;;;21.69;22.06;98379.25;5120811;28;840;-74
2020/12/01 06:40:50;;;;;;;;;;;;;;;21.76;21.96;98379.13;5120614;28;887;-74
2020/12/01 06:43:16;;;;;;;;;;;;;;;20.94;22.82;98382.72;5120830;28;649;-74
2020/12/01 06:45:43;;;;;;;;;;;;;;;21.60;21.85;98384.69;5137124;27;653;-74
2020/12/01 06:48:16;;;;;;;;;;;;;;;21.83;21.85;98383.81;5120523;28;625;-74
2020/12/01 06:50:52;;;;;;;;;;;;;;;21.72;21.74;98371.94;5137125;27;617;-74
2020/12/01 06:53:24;;;;;;;;;;;;;;;21.78;21.70;98376.63;5102586;28;835;-74
2020/12/01 06:55:57;;;;;;;;;;;;;;;21.08;22.69;98374.75;5120397;28;1968;-74
2020/12/01 06:58:25;;;;;;;;;;;;;;;21.86;21.47;98371.59;5120751;28;680;-74
2020/12/01 07:01:01;;;;;;;;;;;;;;;21.56;21.79;98381.16;5120937;28;641;-74
2020/12/01 07:03:27;;;;;;;;;;;;;;;21.84;21.42;98374.88;5120754;28;585;-74
2020/12/01 07:05:52;;;;;;;;;;;;;;;21.88;21.42;98374.03;5120546;28;637;-74
2020/12/01 07:08:27;;;;;;;;;;;;;;;21.61;21.93;98377.03;5120181;28;831;-74
2020/12/01 07:11:21;;;;;;;;;;;;;;;21.35;22.00;98375.91;5120128;28;846;-74
2020/12/01 07:13:48;;;;;;;;;;;;;;;21.71;21.85;98365.47;5125160;28;1145;-74
2020/12/01 07:16:19;;;;;;;;;;;;;;;21.96;21.11;98356.41;5136701;27;1961;-74
2020/12/01 07:18:45;;;;;;;;;;;;;;;21.71;21.59;98364.66;5136962;27;613;-74
2020/12/01 07:21:46;;;;;;;;;;;;;;;21.67;21.74;98370.41;5120379;28;438;-74
2020/12/01 07:24:11;;;;;;;;;;;;;;;21.56;21.86;98367.00;5098630;28;1106;-74
2020/12/01 07:26:45;;;;;;;;;;;;;;;21.77;21.79;98358.06;5115484;28;1034;-75
2020/12/01 07:29:21;;;;;;;;;;;;;;;21.12;22.11;98348.44;5136702;27;642;-74
2020/12/01 07:31:46;;;;;;;;;;;;;;;21.68;21.73;98359.88;5120572;28;676;-75
2020/12/01 07:34:26;;;;;;;;;;;;;;;21.44;22.02;98362.78;5120243;28;609;-75
2020/12/01 07:36:54;;;;;;;;;;;;;;;21.97;21.32;98371.41;5120451;28;1901;-75
2020/12/01 07:39:19;;;;;;;;;;;;;;;21.75;21.76;98366.16;5136307;27;1040;-75
2020/12/01 07:41:46;;;;;;;;;;;;;;;21.75;21.78;98368.22;5120035;28;802;-74
2020/12/01 07:44:13;;;;;;;;;;;;;;;20.92;22.50;98366.16;5120197;28;1032;-75
2020/12/01 07:47:00;;;;;;;;;;;;;;;21.11;22.47;98373.09;5136385;28;618;-74
2020/12/01 07:49:25;;;;;;;;;;;;;;;21.70;21.68;98363.84;5119754;28;1482;-74
2020/12/01 07:52:17;;;;;;;;;;;;;;;21.82;21.34;98368.88;5120469;28;657;-75
2020/12/01 07:54:43;;;;;;;;;;;;;;;21.57;22.00;98366.56;5111418;28;1225;-75
2020/12/01 07:57:12;;;;;;;;;;;;;;;21.54;21.75;98372.28;5119929;28;1897;-75
2020/12/01 07:59:41;;;;;;;;;;;;;;;21.52;21.94;98381.22;5139109;27;626;-75
2020/12/01 08:02:06;;;;;;;;;;;;;;;21.37;22.05;98373.44;5123887;28;663;-71
2020/12/01 08:04:32;;;;;;;;;;;;;;;21.60;21.84;98370.53;5123930;28;601;-66
2020/12/01 08:06:58;;;;;;;;;;;;;;;20.18;23.99;98373.84;5124075;28;582;-67
2020/12/01 08:09:24;;;;;;;;;;;;;;;21.12;23.04;98385.22;5123471;28;904;-71
2020/12/01 08:11:49;;;;;;;;;;;;;;;20.75;24.27;98385.06;5123686;28;816;-70
2020/12/01 08:14:15;;;;;;;;;;;;;;;21.43;23.46;98371.72;5140489;27;983;-68
2020/12/01 08:16:40;;;;;;;;;;;;;;;22.21;22.62;98375.72;5139906;27;1897;-69
2020/12/01 08:19:06;;;;;;;;;;;;;;;22.26;22.73;98378.03;5123640;28;665;-71
2020/12/01 08:21:32;;;;;;;;;;;;;;;22.12;22.45;98381.19;5140284;27;1381;-72
2020/12/01 08:23:59;;;;;;;;;;;;;;;21.79;23.17;98364.06;5123500;28;993;-73
2020/12/01 08:26:28;;;;;;;;;;;;;;;21.72;23.59;98372.72;5123161;28;901;-72
2020/12/01 08:28:55;;;;;;;;;;;;;;;21.68;23.39;98365.53;5123809;28;1054;-71
2020/12/01 08:31:39;;;;;;;;;;;;;;;21.76;23.30;98384.78;5139266;27;1039;-71
2020/12/01 08:34:19;;;;;;;;;;;;;;;21.67;23.56;98370.41;5123473;28;580;-71
2020/12/01 08:36:44;;;;;;;;;;;;;;;21.62;23.53;98372.94;5123598;28;1972;-71
2020/12/01 08:39:16;;;;;;;;;;;;;;;21.50;23.78;98371.56;5122980;28;872;-71
2020/12/01 08:41:47;;;;;;;;;;;;;;;21.46;23.80;98366.00;5122209;28;847;-71
2020/12/01 08:44:24;;;;;;;;;;;;;;;21.51;23.92;98370.34;5122955;28;645;-71
2020/12/01 08:46:50;;;;;;;;;;;;;;;21.50;23.69;98371.56;5122885;28;1157;-71
2020/12/01 08:49:24;;;;;;;;;;;;;;;21.44;24.04;98371.25;5105344;28;593;-71
2020/12/01 08:52:00;;;;;;;;;;;;;;;21.55;24.02;98362.56;5123235;28;677;-73
2020/12/01 08:54:35;;;;;;;;;;;;;;;21.51;23.85;98362.66;5122868;28;609;-70
2020/12/01 08:57:12;;;;;;;;;;;;;;;21.63;23.89;98358.34;5104927;28;1965;-75
2020/12/01 08:59:40;;;;;;;;;;;;;;;21.41;24.08;98363.66;5118461;28;884;-70
2020/12/01 09:02:06;;;;;;;;;;;;;;;22.17;23.48;98349.47;5118600;28;1208;-71
2020/12/01 09:04:32;;;;;;;;;;;;;;;22.21;23.47;98346.56;5102814;28;621;-71
2020/12/01 09:07:20;;;;;;;;;;;;;;;22.44;23.31;98343.59;5107879;28;1095;-79
2020/12/01 09:09:50;;;;;;;;;;;;;;;22.61;23.24;98347.22;5114791;28;1174;-74
2020/12/01 09:12:27;;;;;;;;;;;;;;;22.18;23.54;98341.81;5122989;28;625;-73
2020/12/01 09:17:39;;;;;;;;;;;;;;;22.48;23.67;98332.94;5105199;28;1893;-77
2020/12/01 09:20:14;;;;;;;;;;;;;;;22.43;22.81;98332.66;5106423;28;671;-78
2020/12/01 09:22:39;;;;;;;;;;;;;;;22.33;23.27;98335.34;5122565;28;864;-75
2020/12/01 09:25:08;;;;;;;;;;;;;;;22.27;23.27;98328.59;5122535;28;614;-74
2020/12/01 09:27:34;;;;;;;;;;;;;;;22.49;22.74;98323.22;5122397;28;670;-79
2020/12/01 09:30:00;;;;;;;;;;;;;;;22.75;22.76;98324.16;5104717;28;1101;-80
2020/12/01 09:32:25;;;;;;;;;;;;;;;22.50;22.61;98318.34;5104391;28;797;-77
2020/12/01 09:34:51;;;;;;;;;;;;;;;22.46;23.51;98323.28;5122453;28;911;-83
2020/12/01 09:37:16;;;;;;;;;;;;;;;22.25;23.23;98318.94;5104604;28;2008;-89
2020/12/01 09:39:42;;;;;;;;;;;;;;;22.63;22.96;98316.34;5071407;28;1113;-78
2020/12/01 09:42:27;;;;;;;;;;;;;;;22.45;23.07;98324.53;5122112;28;630;-76
2020/12/01 09:47:38;;;;;;;;;;;;;;;22.27;23.09;98305.91;5122037;28;1036;-75
2020/12/01 09:50:05;;;;;;;;;;;;;;;22.32;23.25;98299.72;5121669;28;957;-76
2020/12/01 09:52:41;;;;;;;;;;;;;;;22.20;23.43;98311.75;5121853;28;582;-71
2020/12/01 09:55:18;;;;;;;;;;;;;;;22.30;23.44;98316.38;5122207;28;594;-68
2020/12/01 10:00:36;;;;;;;;;;;;;;;21.91;23.93;98302.31;5121986;28;687;-66
2020/12/01 10:13:00;;;;;;;;;;;;;;;22.13;23.61;98291.31;5121821;28;654;-70
2020/12/01 10:34:30;;;;;;;;;;;;;;;20.53;25.23;98276.41;5120858;28;867;-71
2020/12/01 10:36:56;;;;;;;;;;;;;;;20.57;24.99;98277.09;5120998;28;1909;-72
2020/12/01 10:39:21;;;;;;;;;;;;;;;20.69;24.77;98272.88;5121275;28;609;-73
2020/12/01 10:41:47;;;;;;;;;;;;;;;20.91;24.62;98267.59;5121189;28;586;-72
2020/12/01 10:44:13;;;;;;;;;;;;;;;21.40;23.82;98251.66;5120565;28;1284;-73
2020/12/01 10:46:38;;;;;;;;;;;;;;;20.92;24.21;98274.84;5121232;28;577;-73
2020/12/01 10:49:03;;;;;;;;;;;;;;;20.23;24.89;98280.91;5120832;28;824;-72
2020/12/01 10:51:29;;;;;;;;;;;;;;;20.84;24.43;98274.22;5120813;28;840;-72
2020/12/01 10:53:54;;;;;;;;;;;;;;;21.05;23.96;98278.66;5121001;28;906;-74
2020/12/01 10:56:20;;;;;;;;;;;;;;;21.40;23.40;98273.50;5121008;28;1968;-74
2020/12/01 10:58:46;;;;;;;;;;;;;;;21.21;23.67;98275.88;5120803;28;692;-74
2020/12/01 11:01:12;;;;;;;;;;;;;;;21.10;23.56;98275.31;5120888;28;644;-74
2020/12/01 11:03:37;;;;;;;;;;;;;;;20.70;24.23;98266.78;5120603;28;970;-74
2020/12/01 11:06:03;;;;;;;;;;;;;;;21.28;23.69;98278.56;5120255;28;884;-74
2020/12/01 11:08:29;;;;;;;;;;;;;;;20.96;23.53;98281.25;5120906;28;863;-74
2020/12/01 11:10:54;;;;;;;;;;;;;;;21.49;23.17;98276.53;5120462;28;646;-73
2020/12/01 11:13:20;;;;;;;;;;;;;;;21.06;23.46;98285.91;5120773;28;637;-74
2020/12/01 11:15:45;;;;;;;;;;;;;;;20.58;24.27;98283.59;5119906;28;1112;-74
2020/12/01 11:18:10;;;;;;;;;;;;;;;20.74;23.83;98275.22;5120438;28;1977;-74
2020/12/01 11:20:36;;;;;;;;;;;;;;;20.71;24.00;98271.19;5120260;28;1033;-74
2020/12/01 11:23:01;;;;;;;;;;;;;;;20.68;23.98;98263.59;5120652;28;625;-74
2020/12/01 11:25:27;;;;;;;;;;;;;;;20.64;23.99;98270.53;5120346;28;644;-74
2020/12/01 11:27:52;;;;;;;;;;;;;;;20.38;24.34;98277.84;5120409;28;625;-74
2020/12/01 11:30:18;;;;;;;;;;;;;;;20.47;24.16;98272.47;5120577;28;688;-74
2020/12/01 11:32:44;;;;;;;;;;;;;;;21.00;23.58;98276.31;5121851;28;570;-74
2020/12/01 11:35:09;;;;;;;;;;;;;;;21.29;23.11;98271.66;5124152;28;1038;-74
2020/12/01 11:37:35;;;;;;;;;;;;;;;21.54;22.75;98271.16;5124137;28;1909;-74
2020/12/01 11:40:00;;;;;;;;;;;;;;;21.29;22.87;98270.88;5124780;28;915;-74
2020/12/01 11:42:26;;;;;;;;;;;;;;;20.80;23.57;98268.59;5124364;28;586;-73
2020/12/01 11:44:51;;;;;;;;;;;;;;;20.49;23.99;98281.31;5124373;28;641;-74
2020/12/01 11:47:17;;;;;;;;;;;;;;;21.02;23.33;98265.34;5124271;28;586;-74
2020/12/01 11:49:42;;;;;;;;;;;;;;;21.53;22.58;98275.22;5124396;28;1007;-74
2020/12/01 11:52:08;;;;;;;;;;;;;;;21.25;22.75;98273.78;5124251;28;872;-74
2020/12/01 11:54:33;;;;;;;;;;;;;;;20.84;23.43;98267.75;5124070;28;920;-74
2020/12/01 11:56:58;;;;;;;;;;;;;;;20.00;24.35;98256.28;5123990;28;1902;-74
2020/12/01 11:59:24;;;;;;;;;;;;;;;21.40;22.79;98265.81;5124204;28;598;-74
2020/12/01 12:01:49;;;;;;;;;;;;;;;21.45;22.64;98258.81;5124006;28;624;-74
2020/12/01 12:04:15;;;;;;;;;;;;;;;20.30;24.14;98268.69;5123716;28;974;-74
2020/12/01 12:06:40;;;;;;;;;;;;;;;20.99;23.04;98254.94;5123650;28;820;-74
2020/12/01 12:09:11;;;;;;;;;;;;;;;20.59;23.67;98262.56;5124001;28;1002;-74
2020/12/01 12:11:36;;;;;;;;;;;;;;;21.25;22.88;98250.34;5123504;28;1079;-74
2020/12/01 12:14:02;;;;;;;;;;;;;;;20.55;23.61;98246.44;5123358;28;1174;-74
2020/12/01 12:16:27;;;;;;;;;;;;;;;20.55;23.58;98248.47;5123386;28;1901;-74
2020/12/01 12:18:53;;;;;;;;;;;;;;;21.32;22.62;98253.84;5122996;28;1133;-73
2020/12/01 12:21:18;;;;;;;;;;;;;;;21.09;22.86;98242.59;5123465;28;813;-74
2020/12/01 12:23:44;;;;;;;;;;;;;;;20.88;23.14;98241.00;5123836;28;1049;-74
2020/12/01 12:26:09;;;;;;;;;;;;;;;20.62;23.59;98239.06;5123791;28;916;-74
2020/12/01 12:28:35;;;;;;;;;;;;;;;20.60;23.42;98233.84;5123536;28;581;-74
2020/12/01 12:31:02;;;;;;;;;;;;;;;20.42;23.77;98239.03;5123907;28;592;-74
2020/12/01 12:33:28;;;;;;;;;;;;;;;20.48;23.62;98234.50;5123343;28;1032;-74
2020/12/01 12:35:53;;;;;;;;;;;;;;;20.06;24.35;98252.97;5123378;28;1905;-74
2020/12/01 12:38:19;;;;;;;;;;;;;;;21.48;22.52;98252.28;5123924;28;851;-74
2020/12/01 12:40:47;;;;;;;;;;;;;;;21.67;22.12;98245.81;5123240;28;664;-74
2020/12/01 12:43:13;;;;;;;;;;;;;;;20.69;22.94;98248.22;5123363;28;659;-74
2020/12/01 12:45:39;;;;;;;;;;;;;;;20.03;24.20;98260.25;5121955;28;860;-74
2020/12/01 12:48:04;;;;;;;;;;;;;;;20.85;23.14;98249.53;5123071;28;882;-74
2020/12/01 12:50:30;;;;;;;;;;;;;;;21.17;22.65;98252.53;5123116;28;904;-74
2020/12/01 12:52:58;;;;;;;;;;;;;;;21.35;22.40;98245.69;5123430;28;669;-74
2020/12/01 12:55:24;;;;;;;;;;;;;;;21.12;22.76;98258.69;5123133;28;653;-74
2020/12/01 12:57:49;;;;;;;;;;;;;;;21.51;22.34;98260.72;5123159;28;1976;-74
2020/12/01 13:00:15;;;;;;;;;;;;;;;21.31;22.67;98252.25;5122179;28;1072;-74
2020/12/01 13:02:40;;;;;;;;;;;;;;;21.33;22.41;98255.44;5122534;28;1241;-74
2020/12/01 13:05:06;;;;;;;;;;;;;;;20.97;22.97;98254.53;5122918;28;851;-73
2020/12/01 13:07:31;;;;;;;;;;;;;;;20.66;23.34;98257.56;5122792;28;664;-74
2020/12/01 13:09:57;;;;;;;;;;;;;;;20.75;23.17;98249.31;5122994;28;581;-74
2020/12/01 13:12:22;;;;;;;;;;;;;;;20.69;23.15;98244.59;5122610;28;1022;-73
2020/12/01 13:14:48;;;;;;;;;;;;;;;20.53;23.34;98234.00;5122376;28;856;-74
2020/12/01 13:17:13;;;;;;;;;;;;;;;20.60;23.43;98247.19;5122961;28;2118;-74
2020/12/01 13:19:39;;;;;;;;;;;;;;;20.59;23.52;98245.59;5122769;28;627;-73
2020/12/01 13:22:04;;;;;;;;;;;;;;;20.65;23.30;98244.66;5122800;28;640;-74
2020/12/01 13:24:29;;;;;;;;;;;;;;;20.60;23.39;98248.00;5122630;28;630;-74
2020/12/01 13:26:55;;;;;;;;;;;;;;;20.79;23.11;98250.06;5122332;28;993;-73
2020/12/01 13:29:20;;;;;;;;;;;;;;;20.69;23.01;98234.09;5122030;28;868;-74
2020/12/01 13:31:46;;;;;;;;;;;;;;;19.98;24.16;98247.41;5122506;28;1039;-73
2020/12/01 13:34:12;;;;;;;;;;;;;;;20.51;23.54;98239.25;5122189;28;458;-74
2020/12/01 13:36:37;;;;;;;;;;;;;;;20.68;23.01;98246.63;5122257;28;1973;-73
2020/12/01 13:39:03;;;;;;;;;;;;;;;20.81;22.92;98244.75;5122403;28;618;-74
2020/12/01 13:41:28;;;;;;;;;;;;;;;20.03;23.94;98248.94;5121767;28;968;-74
2020/12/01 13:43:53;;;;;;;;;;;;;;;20.67;23.19;98247.84;5122046;28;878;-73
2020/12/01 13:46:19;;;;;;;;;;;;;;;20.98;22.74;98256.13;5122024;28;919;-73
2020/12/01 13:48:44;;;;;;;;;;;;;;;21.40;22.21;98248.00;5122289;28;635;-73
2020/12/01 13:51:10;;;;;;;;;;;;;;;21.00;22.78;98248.03;5121897;28;625;-73